sensor_id;sensor_type;location;lat;lon;timestamp;P1;durP1;ratioP1;P2;durP2;ratioP2
72209;SDS011;60113;48.762;12.302;2022-10-31T00:00:40;126.78;;;56.13;;
72209;SDS011;60113;48.762;12.302;2022-10-31T00:03:06;139.35;;;72.13;;
72209;SDS011;60113;48.762;12.302;2022-10-31T00:05:31;154.07;;;64.80;;
72209;SDS011;60113;48.762;12.302;2022-10-31T00:07:57;159.73;;;63.65;;
72209;SDS011;60113;48.762;12.302;2022-10-31T00:10:25;117.30;;;46.42;;
72209;SDS011;60113;48.762;12.302;2022-10-31T00:12:51;133.45;;;48.88;;
72209;SDS011;60113;48.762;12.302;2022-10-31T00:15:19;135.93;;;52.10;;
72209;SDS011;60113;48.762;12.302;2022-10-31T00:17:45;119.25;;;48.65;;
72209;SDS011;60113;48.762;12.302;2022-10-31T00:20:14;105.75;;;42.38;;
72209;SDS011;60113;48.762;12.302;2022-10-31T00:22:42;87.32;;;34.60;;
72209;SDS011;60113;48.762;12.302;2022-10-31T00:25:10;90.75;;;33.55;;
72209;SDS011;60113;48.762;12.302;2022-10-31T00:27:39;75.45;;;28.98;;
72209;SDS011;60113;48.762;12.302;2022-10-31T00:30:04;55.40;;;24.40;;
72209;SDS011;60113;48.762;12.302;2022-10-31T00:32:30;55.28;;;21.67;;
72209;SDS011;60113;48.762;12.302;2022-10-31T00:34:58;49.97;;;20.35;;
72209;SDS011;60113;48.762;12.302;2022-10-31T00:37:24;61.65;;;21.77;;
72209;SDS011;60113;48.762;12.302;2022-10-31T00:39:49;60.38;;;24.90;;
72209;SDS011;60113;48.762;12.302;2022-10-31T00:42:15;72.70;;;27.02;;
72209;SDS011;60113;48.762;12.302;2022-10-31T00:44:43;60.50;;;25.50;;
72209;SDS011;60113;48.762;12.302;2022-10-31T00:47:09;60.70;;;27.05;;
72209;SDS011;60113;48.762;12.302;2022-10-31T00:49:34;62.85;;;26.67;;
72209;SDS011;60113;48.762;12.302;2022-10-31T00:52:00;79.28;;;30.75;;
72209;SDS011;60113;48.762;12.302;2022-10-31T00:54:28;86.20;;;33.65;;
72209;SDS011;60113;48.762;12.302;2022-10-31T00:56:58;94.80;;;33.30;;
72209;SDS011;60113;48.762;12.302;2022-10-31T00:59:23;85.45;;;31.85;;
72209;SDS011;60113;48.762;12.302;2022-10-31T01:01:49;64.70;;;30.88;;
72209;SDS011;60113;48.762;12.302;2022-10-31T01:04:14;90.97;;;36.38;;
72209;SDS011;60113;48.762;12.302;2022-10-31T01:06:42;90.90;;;38.42;;
72209;SDS011;60113;48.762;12.302;2022-10-31T01:09:08;102.68;;;39.42;;
72209;SDS011;60113;48.762;12.302;2022-10-31T01:11:34;103.78;;;36.50;;
72209;SDS011;60113;48.762;12.302;2022-10-31T01:13:59;106.13;;;37.53;;
72209;SDS011;60113;48.762;12.302;2022-10-31T01:16:26;110.63;;;37.47;;
72209;SDS011;60113;48.762;12.302;2022-10-31T01:18:54;215.60;;;44.42;;
72209;SDS011;60113;48.762;12.302;2022-10-31T01:21:21;220.98;;;44.13;;
72209;SDS011;60113;48.762;12.302;2022-10-31T01:23:48;108.72;;;36.80;;
72209;SDS011;60113;48.762;12.302;2022-10-31T01:26:18;88.20;;;33.30;;
72209;SDS011;60113;48.762;12.302;2022-10-31T01:28:50;244.82;;;40.13;;
72209;SDS011;60113;48.762;12.302;2022-10-31T01:31:21;258.90;;;46.78;;
72209;SDS011;60113;48.762;12.302;2022-10-31T01:33:50;219.65;;;42.78;;
72209;SDS011;60113;48.762;12.302;2022-10-31T01:36:20;381.58;;;48.83;;
72209;SDS011;60113;48.762;12.302;2022-10-31T01:38:55;194.30;;;39.10;;
72209;SDS011;60113;48.762;12.302;2022-10-31T01:41:23;114.97;;;34.45;;
72209;SDS011;60113;48.762;12.302;2022-10-31T01:43:55;118.18;;;35.88;;
72209;SDS011;60113;48.762;12.302;2022-10-31T01:46:39;132.20;;;35.75;;
72209;SDS011;60113;48.762;12.302;2022-10-31T01:49:13;354.35;;;46.13;;
72209;SDS011;60113;48.762;12.302;2022-10-31T01:51:48;160.50;;;39.67;;
72209;SDS011;60113;48.762;12.302;2022-10-31T01:54:21;283.70;;;41.28;;
72209;SDS011;60113;48.762;12.302;2022-10-31T01:56:51;354.45;;;46.47;;
72209;SDS011;60113;48.762;12.302;2022-10-31T01:59:20;220.20;;;40.80;;
72209;SDS011;60113;48.762;12.302;2022-10-31T02:01:50;301.65;;;45.03;;
72209;SDS011;60113;48.762;12.302;2022-10-31T02:04:17;355.83;;;50.65;;
72209;SDS011;60113;48.762;12.302;2022-10-31T02:06:54;309.58;;;46.63;;
72209;SDS011;60113;48.762;12.302;2022-10-31T02:09:25;211.25;;;40.10;;
72209;SDS011;60113;48.762;12.302;2022-10-31T02:11:51;311.95;;;45.05;;
72209;SDS011;60113;48.762;12.302;2022-10-31T02:14:21;157.45;;;36.30;;
72209;SDS011;60113;48.762;12.302;2022-10-31T02:16:48;136.90;;;35.13;;
72209;SDS011;60113;48.762;12.302;2022-10-31T02:19:16;114.05;;;34.50;;
72209;SDS011;60113;48.762;12.302;2022-10-31T02:21:52;117.75;;;35.50;;
72209;SDS011;60113;48.762;12.302;2022-10-31T02:35:25;179.50;;;37.40;;
72209;SDS011;60113;48.762;12.302;2022-10-31T02:40:54;125.75;;;38.33;;
72209;SDS011;60113;48.762;12.302;2022-10-31T02:43:40;107.38;;;33.25;;
72209;SDS011;60113;48.762;12.302;2022-10-31T02:46:19;114.40;;;40.00;;
72209;SDS011;60113;48.762;12.302;2022-10-31T02:48:53;128.00;;;39.08;;
72209;SDS011;60113;48.762;12.302;2022-10-31T02:51:20;115.00;;;38.83;;
72209;SDS011;60113;48.762;12.302;2022-10-31T02:53:46;156.75;;;43.83;;
72209;SDS011;60113;48.762;12.302;2022-10-31T02:56:13;164.65;;;43.42;;
72209;SDS011;60113;48.762;12.302;2022-10-31T03:12:53;215.07;;;37.60;;
72209;SDS011;60113;48.762;12.302;2022-10-31T03:18:09;300.83;;;41.38;;
72209;SDS011;60113;48.762;12.302;2022-10-31T03:21:08;293.30;;;44.58;;
72209;SDS011;60113;48.762;12.302;2022-10-31T03:23:39;133.27;;;36.28;;
72209;SDS011;60113;48.762;12.302;2022-10-31T03:26:07;146.65;;;39.47;;
72209;SDS011;60113;48.762;12.302;2022-10-31T03:29:18;127.22;;;39.97;;
72209;SDS011;60113;48.762;12.302;2022-10-31T03:31:47;154.57;;;41.20;;
72209;SDS011;60113;48.762;12.302;2022-10-31T03:34:17;176.48;;;46.35;;
72209;SDS011;60113;48.762;12.302;2022-10-31T03:36:44;246.73;;;46.88;;
72209;SDS011;60113;48.762;12.302;2022-10-31T03:39:15;301.70;;;52.88;;
72209;SDS011;60113;48.762;12.302;2022-10-31T03:41:46;244.23;;;43.72;;
72209;SDS011;60113;48.762;12.302;2022-10-31T03:44:19;250.48;;;42.35;;
72209;SDS011;60113;48.762;12.302;2022-10-31T03:46:46;360.67;;;49.58;;
72209;SDS011;60113;48.762;12.302;2022-10-31T03:49:12;412.55;;;53.15;;
72209;SDS011;60113;48.762;12.302;2022-10-31T03:54:13;181.27;;;42.00;;
72209;SDS011;60113;48.762;12.302;2022-10-31T03:56:41;260.95;;;43.10;;
72209;SDS011;60113;48.762;12.302;2022-10-31T03:59:12;287.02;;;42.47;;
72209;SDS011;60113;48.762;12.302;2022-10-31T04:01:44;377.40;;;44.95;;
72209;SDS011;60113;48.762;12.302;2022-10-31T04:04:12;245.27;;;37.13;;
72209;SDS011;60113;48.762;12.302;2022-10-31T04:06:39;339.25;;;44.55;;
72209;SDS011;60113;48.762;12.302;2022-10-31T04:09:08;309.08;;;43.88;;
72209;SDS011;60113;48.762;12.302;2022-10-31T04:11:36;372.58;;;46.80;;
72209;SDS011;60113;48.762;12.302;2022-10-31T04:14:08;297.67;;;42.88;;
72209;SDS011;60113;48.762;12.302;2022-10-31T04:16:35;331.88;;;44.45;;
72209;SDS011;60113;48.762;12.302;2022-10-31T04:19:00;353.23;;;45.60;;
72209;SDS011;60113;48.762;12.302;2022-10-31T04:21:26;216.52;;;35.72;;
72209;SDS011;60113;48.762;12.302;2022-10-31T04:23:55;143.77;;;30.45;;
72209;SDS011;60113;48.762;12.302;2022-10-31T04:26:21;231.68;;;40.20;;
72209;SDS011;60113;48.762;12.302;2022-10-31T04:28:46;248.55;;;39.75;;
72209;SDS011;60113;48.762;12.302;2022-10-31T04:31:12;352.80;;;49.42;;
72209;SDS011;60113;48.762;12.302;2022-10-31T04:33:38;333.50;;;44.00;;
72209;SDS011;60113;48.762;12.302;2022-10-31T04:36:03;249.10;;;38.97;;
72209;SDS011;60113;48.762;12.302;2022-10-31T04:38:29;278.50;;;39.42;;
72209;SDS011;60113;48.762;12.302;2022-10-31T04:40:55;370.27;;;43.83;;
72209;SDS011;60113;48.762;12.302;2022-10-31T04:43:21;318.80;;;42.92;;
72209;SDS011;60113;48.762;12.302;2022-10-31T04:45:46;304.85;;;41.55;;
72209;SDS011;60113;48.762;12.302;2022-10-31T04:48:12;326.65;;;43.20;;
72209;SDS011;60113;48.762;12.302;2022-10-31T04:50:37;259.33;;;37.65;;
72209;SDS011;60113;48.762;12.302;2022-10-31T04:53:03;319.48;;;39.92;;
72209;SDS011;60113;48.762;12.302;2022-10-31T04:55:28;306.33;;;40.08;;
72209;SDS011;60113;48.762;12.302;2022-10-31T04:57:54;375.10;;;46.25;;
72209;SDS011;60113;48.762;12.302;2022-10-31T05:00:19;341.63;;;41.88;;
72209;SDS011;60113;48.762;12.302;2022-10-31T05:02:47;381.13;;;46.28;;
72209;SDS011;60113;48.762;12.302;2022-10-31T05:05:14;360.10;;;45.55;;
72209;SDS011;60113;48.762;12.302;2022-10-31T05:07:41;279.63;;;40.65;;
72209;SDS011;60113;48.762;12.302;2022-10-31T05:10:12;212.48;;;38.72;;
72209;SDS011;60113;48.762;12.302;2022-10-31T05:12:46;281.02;;;44.33;;
72209;SDS011;60113;48.762;12.302;2022-10-31T05:15:13;241.77;;;40.75;;
72209;SDS011;60113;48.762;12.302;2022-10-31T05:17:39;189.75;;;40.15;;
72209;SDS011;60113;48.762;12.302;2022-10-31T05:20:04;280.55;;;51.05;;
72209;SDS011;60113;48.762;12.302;2022-10-31T05:22:30;229.23;;;45.22;;
72209;SDS011;60113;48.762;12.302;2022-10-31T05:24:55;212.48;;;41.55;;
72209;SDS011;60113;48.762;12.302;2022-10-31T05:27:21;155.70;;;39.35;;
72209;SDS011;60113;48.762;12.302;2022-10-31T05:29:46;178.70;;;38.90;;
72209;SDS011;60113;48.762;12.302;2022-10-31T05:32:12;178.35;;;38.35;;
72209;SDS011;60113;48.762;12.302;2022-10-31T05:34:37;269.70;;;45.83;;
72209;SDS011;60113;48.762;12.302;2022-10-31T05:37:03;226.90;;;41.25;;
72209;SDS011;60113;48.762;12.302;2022-10-31T05:39:28;159.40;;;37.72;;
72209;SDS011;60113;48.762;12.302;2022-10-31T05:41:53;175.18;;;38.55;;
72209;SDS011;60113;48.762;12.302;2022-10-31T05:44:19;256.45;;;42.47;;
72209;SDS011;60113;48.762;12.302;2022-10-31T05:46:45;208.23;;;35.58;;
72209;SDS011;60113;48.762;12.302;2022-10-31T05:49:11;310.83;;;43.92;;
72209;SDS011;60113;48.762;12.302;2022-10-31T05:51:37;295.23;;;43.90;;
72209;SDS011;60113;48.762;12.302;2022-10-31T05:54:03;294.27;;;41.35;;
72209;SDS011;60113;48.762;12.302;2022-10-31T05:56:28;331.23;;;44.28;;
72209;SDS011;60113;48.762;12.302;2022-10-31T05:58:54;386.38;;;52.63;;
72209;SDS011;60113;48.762;12.302;2022-10-31T06:01:19;286.33;;;46.85;;
72209;SDS011;60113;48.762;12.302;2022-10-31T06:03:45;333.88;;;57.85;;
72209;SDS011;60113;48.762;12.302;2022-10-31T06:06:10;287.73;;;47.70;;
72209;SDS011;60113;48.762;12.302;2022-10-31T06:08:36;331.05;;;47.30;;
72209;SDS011;60113;48.762;12.302;2022-10-31T06:11:02;363.75;;;54.53;;
72209;SDS011;60113;48.762;12.302;2022-10-31T06:13:27;341.50;;;53.60;;
72209;SDS011;60113;48.762;12.302;2022-10-31T06:15:53;366.48;;;51.85;;
72209;SDS011;60113;48.762;12.302;2022-10-31T06:18:18;303.58;;;47.67;;
72209;SDS011;60113;48.762;12.302;2022-10-31T06:20:44;307.95;;;49.03;;
72209;SDS011;60113;48.762;12.302;2022-10-31T06:23:09;316.00;;;49.63;;
72209;SDS011;60113;48.762;12.302;2022-10-31T06:25:34;370.65;;;52.67;;
72209;SDS011;60113;48.762;12.302;2022-10-31T06:28:00;447.98;;;66.10;;
72209;SDS011;60113;48.762;12.302;2022-10-31T06:30:26;396.45;;;56.42;;
72209;SDS011;60113;48.762;12.302;2022-10-31T06:32:52;329.23;;;50.42;;
72209;SDS011;60113;48.762;12.302;2022-10-31T06:35:17;257.15;;;47.55;;
72209;SDS011;60113;48.762;12.302;2022-10-31T06:37:43;249.90;;;48.70;;
72209;SDS011;60113;48.762;12.302;2022-10-31T06:40:16;244.88;;;52.53;;
72209;SDS011;60113;48.762;12.302;2022-10-31T06:42:41;260.92;;;51.05;;
72209;SDS011;60113;48.762;12.302;2022-10-31T06:45:06;250.93;;;49.78;;
72209;SDS011;60113;48.762;12.302;2022-10-31T06:47:32;148.05;;;33.22;;
72209;SDS011;60113;48.762;12.302;2022-10-31T06:49:58;148.48;;;33.80;;
72209;SDS011;60113;48.762;12.302;2022-10-31T06:52:23;140.77;;;32.80;;
72209;SDS011;60113;48.762;12.302;2022-10-31T06:54:48;166.15;;;33.85;;
72209;SDS011;60113;48.762;12.302;2022-10-31T06:57:14;220.60;;;44.03;;
72209;SDS011;60113;48.762;12.302;2022-10-31T06:59:39;228.88;;;56.08;;
72209;SDS011;60113;48.762;12.302;2022-10-31T07:02:07;157.35;;;44.90;;
72209;SDS011;60113;48.762;12.302;2022-10-31T07:04:35;229.65;;;55.95;;
72209;SDS011;60113;48.762;12.302;2022-10-31T07:07:00;164.15;;;43.60;;
72209;SDS011;60113;48.762;12.302;2022-10-31T07:09:26;153.63;;;38.50;;
72209;SDS011;60113;48.762;12.302;2022-10-31T07:11:52;117.95;;;35.05;;
72209;SDS011;60113;48.762;12.302;2022-10-31T07:14:18;147.13;;;37.70;;
72209;SDS011;60113;48.762;12.302;2022-10-31T07:16:43;130.18;;;38.53;;
72209;SDS011;60113;48.762;12.302;2022-10-31T07:19:09;122.97;;;38.72;;
72209;SDS011;60113;48.762;12.302;2022-10-31T07:21:34;98.22;;;30.05;;
72209;SDS011;60113;48.762;12.302;2022-10-31T07:24:00;134.85;;;33.28;;
72209;SDS011;60113;48.762;12.302;2022-10-31T07:26:25;244.68;;;42.75;;
72209;SDS011;60113;48.762;12.302;2022-10-31T07:28:52;334.58;;;48.03;;
72209;SDS011;60113;48.762;12.302;2022-10-31T07:31:18;311.27;;;43.97;;
72209;SDS011;60113;48.762;12.302;2022-10-31T07:33:43;139.63;;;36.95;;
72209;SDS011;60113;48.762;12.302;2022-10-31T07:36:09;131.98;;;30.27;;
72209;SDS011;60113;48.762;12.302;2022-10-31T07:38:34;189.13;;;32.58;;
72209;SDS011;60113;48.762;12.302;2022-10-31T07:40:59;113.20;;;20.63;;
72209;SDS011;60113;48.762;12.302;2022-10-31T07:43:25;68.20;;;14.80;;
72209;SDS011;60113;48.762;12.302;2022-10-31T07:45:51;349.88;;;39.72;;
72209;SDS011;60113;48.762;12.302;2022-10-31T07:48:17;120.65;;;22.25;;
72209;SDS011;60113;48.762;12.302;2022-10-31T07:50:43;97.72;;;19.33;;
72209;SDS011;60113;48.762;12.302;2022-10-31T07:53:10;336.42;;;33.00;;
72209;SDS011;60113;48.762;12.302;2022-10-31T07:55:36;144.63;;;18.02;;
72209;SDS011;60113;48.762;12.302;2022-10-31T07:58:03;221.18;;;23.67;;
72209;SDS011;60113;48.762;12.302;2022-10-31T08:00:31;46.75;;;9.27;;
72209;SDS011;60113;48.762;12.302;2022-10-31T08:03:02;39.70;;;9.77;;
72209;SDS011;60113;48.762;12.302;2022-10-31T08:05:30;66.55;;;10.07;;
72209;SDS011;60113;48.762;12.302;2022-10-31T08:07:56;55.25;;;8.18;;
72209;SDS011;60113;48.762;12.302;2022-10-31T08:10:23;29.75;;;5.88;;
72209;SDS011;60113;48.762;12.302;2022-10-31T08:12:58;76.78;;;7.88;;
72209;SDS011;60113;48.762;12.302;2022-10-31T08:15:28;306.52;;;14.18;;
72209;SDS011;60113;48.762;12.302;2022-10-31T08:17:54;193.07;;;16.25;;
72209;SDS011;60113;48.762;12.302;2022-10-31T08:20:20;111.05;;;19.27;;
72209;SDS011;60113;48.762;12.302;2022-10-31T08:22:56;25.55;;;6.55;;
72209;SDS011;60113;48.762;12.302;2022-10-31T08:25:23;72.68;;;9.50;;
72209;SDS011;60113;48.762;12.302;2022-10-31T08:27:49;183.38;;;8.70;;
72209;SDS011;60113;48.762;12.302;2022-10-31T08:30:19;44.10;;;5.35;;
72209;SDS011;60113;48.762;12.302;2022-10-31T08:32:46;142.20;;;7.80;;
72209;SDS011;60113;48.762;12.302;2022-10-31T08:35:12;140.45;;;8.35;;
72209;SDS011;60113;48.762;12.302;2022-10-31T08:37:37;57.55;;;6.72;;
72209;SDS011;60113;48.762;12.302;2022-10-31T08:40:03;48.22;;;6.75;;
72209;SDS011;60113;48.762;12.302;2022-10-31T08:42:29;124.22;;;7.70;;
72209;SDS011;60113;48.762;12.302;2022-10-31T08:44:55;14.48;;;5.22;;
72209;SDS011;60113;48.762;12.302;2022-10-31T08:47:20;36.60;;;6.50;;
72209;SDS011;60113;48.762;12.302;2022-10-31T08:49:46;59.80;;;6.95;;
72209;SDS011;60113;48.762;12.302;2022-10-31T08:52:11;89.85;;;7.32;;
72209;SDS011;60113;48.762;12.302;2022-10-31T08:54:37;51.33;;;6.30;;
72209;SDS011;60113;48.762;12.302;2022-10-31T08:57:02;40.65;;;5.95;;
72209;SDS011;60113;48.762;12.302;2022-10-31T08:59:28;63.30;;;6.93;;
72209;SDS011;60113;48.762;12.302;2022-10-31T09:01:53;96.68;;;7.63;;
72209;SDS011;60113;48.762;12.302;2022-10-31T09:04:20;46.53;;;7.10;;
72209;SDS011;60113;48.762;12.302;2022-10-31T09:06:45;49.08;;;6.68;;
72209;SDS011;60113;48.762;12.302;2022-10-31T09:09:11;159.90;;;9.90;;
72209;SDS011;60113;48.762;12.302;2022-10-31T09:11:36;89.78;;;9.88;;
72209;SDS011;60113;48.762;12.302;2022-10-31T09:14:02;38.28;;;7.25;;
72209;SDS011;60113;48.762;12.302;2022-10-31T09:16:28;149.13;;;10.38;;
72209;SDS011;60113;48.762;12.302;2022-10-31T09:18:53;102.88;;;9.35;;
72209;SDS011;60113;48.762;12.302;2022-10-31T09:21:19;84.72;;;9.98;;
72209;SDS011;60113;48.762;12.302;2022-10-31T09:23:45;114.70;;;10.20;;
72209;SDS011;60113;48.762;12.302;2022-10-31T09:26:10;106.07;;;13.07;;
72209;SDS011;60113;48.762;12.302;2022-10-31T09:28:36;93.05;;;12.13;;
72209;SDS011;60113;48.762;12.302;2022-10-31T09:31:01;141.68;;;13.32;;
72209;SDS011;60113;48.762;12.302;2022-10-31T09:33:27;94.53;;;14.20;;
72209;SDS011;60113;48.762;12.302;2022-10-31T09:35:52;120.78;;;18.88;;
72209;SDS011;60113;48.762;12.302;2022-10-31T09:38:18;122.95;;;13.38;;
72209;SDS011;60113;48.762;12.302;2022-10-31T09:40:46;69.97;;;12.68;;
72209;SDS011;60113;48.762;12.302;2022-10-31T09:49:07;69.50;;;12.90;;
72209;SDS011;60113;48.762;12.302;2022-10-31T09:52:35;29.92;;;10.27;;
72209;SDS011;60113;48.762;12.302;2022-10-31T09:54:43;50.38;;;10.98;;
72209;SDS011;60113;48.762;12.302;2022-10-31T09:57:15;44.28;;;11.43;;
72209;SDS011;60113;48.762;12.302;2022-10-31T09:59:43;47.28;;;11.25;;
72209;SDS011;60113;48.762;12.302;2022-10-31T10:02:13;102.35;;;11.52;;
72209;SDS011;60113;48.762;12.302;2022-10-31T10:10:22;34.60;;;10.15;;
72209;SDS011;60113;48.762;12.302;2022-10-31T10:13:01;46.00;;;10.25;;
72209;SDS011;60113;48.762;12.302;2022-10-31T10:20:56;43.88;;;11.30;;
72209;SDS011;60113;48.762;12.302;2022-10-31T10:23:51;51.58;;;11.63;;
72209;SDS011;60113;48.762;12.302;2022-10-31T10:26:19;61.08;;;12.32;;
72209;SDS011;60113;48.762;12.302;2022-10-31T10:28:52;42.95;;;12.20;;
72209;SDS011;60113;48.762;12.302;2022-10-31T10:31:29;52.63;;;13.23;;
72209;SDS011;60113;48.762;12.302;2022-10-31T10:37:02;46.72;;;13.98;;
72209;SDS011;60113;48.762;12.302;2022-10-31T10:39:35;36.03;;;14.63;;
72209;SDS011;60113;48.762;12.302;2022-10-31T10:42:13;38.05;;;15.55;;
72209;SDS011;60113;48.762;12.302;2022-10-31T10:44:59;25.27;;;12.48;;
72209;SDS011;60113;48.762;12.302;2022-10-31T10:47:52;27.67;;;12.95;;
72209;SDS011;60113;48.762;12.302;2022-10-31T10:50:32;34.03;;;15.10;;
72209;SDS011;60113;48.762;12.302;2022-10-31T10:53:21;25.98;;;14.43;;
72209;SDS011;60113;48.762;12.302;2022-10-31T10:56:02;49.25;;;15.00;;
72209;SDS011;60113;48.762;12.302;2022-10-31T11:01:14;33.95;;;15.55;;
72209;SDS011;60113;48.762;12.302;2022-10-31T11:03:40;43.45;;;19.55;;
72209;SDS011;60113;48.762;12.302;2022-10-31T11:06:15;50.58;;;19.35;;
72209;SDS011;60113;48.762;12.302;2022-10-31T11:08:51;59.78;;;16.55;;
72209;SDS011;60113;48.762;12.302;2022-10-31T11:13:47;43.30;;;18.20;;
72209;SDS011;60113;48.762;12.302;2022-10-31T11:16:26;35.38;;;16.27;;
72209;SDS011;60113;48.762;12.302;2022-10-31T11:19:04;28.60;;;18.05;;
72209;SDS011;60113;48.762;12.302;2022-10-31T11:21:32;32.00;;;18.58;;
72209;SDS011;60113;48.762;12.302;2022-10-31T11:24:03;44.72;;;19.02;;
72209;SDS011;60113;48.762;12.302;2022-10-31T11:26:51;40.83;;;21.17;;
72209;SDS011;60113;48.762;12.302;2022-10-31T11:29:24;39.10;;;20.73;;
72209;SDS011;60113;48.762;12.302;2022-10-31T11:31:56;33.47;;;21.20;;
72209;SDS011;60113;48.762;12.302;2022-10-31T11:36:51;86.63;;;20.23;;
72209;SDS011;60113;48.762;12.302;2022-10-31T11:39:21;67.93;;;22.08;;
72209;SDS011;60113;48.762;12.302;2022-10-31T11:41:49;97.05;;;20.63;;
72209;SDS011;60113;48.762;12.302;2022-10-31T11:44:26;69.18;;;23.23;;
72209;SDS011;60113;48.762;12.302;2022-10-31T11:46:54;66.88;;;24.08;;
72209;SDS011;60113;48.762;12.302;2022-10-31T11:49:31;104.47;;;20.90;;
72209;SDS011;60113;48.762;12.302;2022-10-31T11:52:04;84.85;;;23.13;;
72209;SDS011;60113;48.762;12.302;2022-10-31T11:54:34;22.95;;;17.08;;
72209;SDS011;60113;48.762;12.302;2022-10-31T11:57:26;56.63;;;23.15;;
72209;SDS011;60113;48.762;12.302;2022-10-31T11:59:57;37.85;;;20.45;;
72209;SDS011;60113;48.762;12.302;2022-10-31T12:02:25;28.67;;;14.70;;
72209;SDS011;60113;48.762;12.302;2022-10-31T12:07:33;72.97;;;23.48;;
72209;SDS011;60113;48.762;12.302;2022-10-31T12:09:58;47.63;;;21.08;;
72209;SDS011;60113;48.762;12.302;2022-10-31T12:21:11;128.32;;;25.83;;
72209;SDS011;60113;48.762;12.302;2022-10-31T12:23:50;142.77;;;20.48;;
72209;SDS011;60113;48.762;12.302;2022-10-31T12:34:51;59.72;;;20.10;;
72209;SDS011;60113;48.762;12.302;2022-10-31T12:57:30;113.13;;;20.98;;
72209;SDS011;60113;48.762;12.302;2022-10-31T13:00:04;44.03;;;22.88;;
72209;SDS011;60113;48.762;12.302;2022-10-31T13:08:39;45.35;;;20.33;;
72209;SDS011;60113;48.762;12.302;2022-10-31T13:16:16;155.88;;;26.55;;
72209;SDS011;60113;48.762;12.302;2022-10-31T13:21:20;89.53;;;23.17;;
72209;SDS011;60113;48.762;12.302;2022-10-31T13:23:49;158.75;;;26.40;;
72209;SDS011;60113;48.762;12.302;2022-10-31T13:26:38;128.73;;;23.85;;
72209;SDS011;60113;48.762;12.302;2022-10-31T13:29:18;140.20;;;27.90;;
72209;SDS011;60113;48.762;12.302;2022-10-31T13:31:45;108.38;;;31.05;;
72209;SDS011;60113;48.762;12.302;2022-10-31T13:34:17;202.55;;;27.75;;
72209;SDS011;60113;48.762;12.302;2022-10-31T13:36:50;199.70;;;34.67;;
72209;SDS011;60113;48.762;12.302;2022-10-31T13:39:30;218.00;;;32.90;;
72209;SDS011;60113;48.762;12.302;2022-10-31T13:44:48;153.75;;;34.15;;
72209;SDS011;60113;48.762;12.302;2022-10-31T13:47:21;320.40;;;31.83;;
72209;SDS011;60113;48.762;12.302;2022-10-31T13:49:49;269.55;;;33.20;;
72209;SDS011;60113;48.762;12.302;2022-10-31T13:52:22;257.75;;;32.60;;
72209;SDS011;60113;48.762;12.302;2022-10-31T13:54:50;404.08;;;32.95;;
72209;SDS011;60113;48.762;12.302;2022-10-31T14:00:05;475.98;;;30.20;;
72209;SDS011;60113;48.762;12.302;2022-10-31T14:02:32;402.75;;;35.88;;
72209;SDS011;60113;48.762;12.302;2022-10-31T14:05:01;283.92;;;28.23;;
72209;SDS011;60113;48.762;12.302;2022-10-31T14:07:31;237.10;;;31.98;;
72209;SDS011;60113;48.762;12.302;2022-10-31T14:10:04;68.43;;;24.00;;
72209;SDS011;60113;48.762;12.302;2022-10-31T14:12:46;73.55;;;23.88;;
72209;SDS011;60113;48.762;12.302;2022-10-31T14:17:56;251.45;;;28.98;;
72209;SDS011;60113;48.762;12.302;2022-10-31T14:20:43;126.70;;;24.60;;
72209;SDS011;60113;48.762;12.302;2022-10-31T14:23:13;373.45;;;29.00;;
72209;SDS011;60113;48.762;12.302;2022-10-31T14:28:55;183.38;;;32.08;;
72209;SDS011;60113;48.762;12.302;2022-10-31T14:31:35;265.58;;;29.98;;
72209;SDS011;60113;48.762;12.302;2022-10-31T14:45:06;337.85;;;48.65;;
72209;SDS011;60113;48.762;12.302;2022-10-31T14:50:56;284.55;;;39.25;;
72209;SDS011;60113;48.762;12.302;2022-10-31T14:53:44;183.05;;;34.47;;
72209;SDS011;60113;48.762;12.302;2022-10-31T14:56:14;159.32;;;33.53;;
72209;SDS011;60113;48.762;12.302;2022-10-31T14:58:46;207.23;;;30.27;;
72209;SDS011;60113;48.762;12.302;2022-10-31T15:01:32;266.67;;;34.92;;
72209;SDS011;60113;48.762;12.302;2022-10-31T15:04:21;358.30;;;37.75;;
72209;SDS011;60113;48.762;12.302;2022-10-31T15:06:59;224.00;;;33.05;;
72209;SDS011;60113;48.762;12.302;2022-10-31T15:09:32;187.77;;;27.02;;
72209;SDS011;60113;48.762;12.302;2022-10-31T15:12:00;242.25;;;32.00;;
72209;SDS011;60113;48.762;12.302;2022-10-31T15:14:41;376.58;;;33.35;;
72209;SDS011;60113;48.762;12.302;2022-10-31T15:17:08;306.83;;;33.50;;
72209;SDS011;60113;48.762;12.302;2022-10-31T15:19:36;193.95;;;27.35;;
72209;SDS011;60113;48.762;12.302;2022-10-31T15:22:03;468.02;;;60.80;;
72209;SDS011;60113;48.762;12.302;2022-10-31T15:24:36;359.25;;;53.85;;
72209;SDS011;60113;48.762;12.302;2022-10-31T15:27:04;240.40;;;45.72;;
72209;SDS011;60113;48.762;12.302;2022-10-31T15:29:36;481.75;;;45.67;;
72209;SDS011;60113;48.762;12.302;2022-10-31T15:32:25;321.58;;;40.42;;
72209;SDS011;60113;48.762;12.302;2022-10-31T15:34:53;355.17;;;35.65;;
72209;SDS011;60113;48.762;12.302;2022-10-31T15:37:24;429.30;;;37.25;;
72209;SDS011;60113;48.762;12.302;2022-10-31T15:39:52;137.00;;;22.42;;
72209;SDS011;60113;48.762;12.302;2022-10-31T15:42:23;423.00;;;36.75;;
72209;SDS011;60113;48.762;12.302;2022-10-31T15:47:38;504.17;;;46.20;;
72209;SDS011;60113;48.762;12.302;2022-10-31T15:50:20;444.65;;;46.55;;
72209;SDS011;60113;48.762;12.302;2022-10-31T15:52:54;596.78;;;46.95;;
72209;SDS011;60113;48.762;12.302;2022-10-31T15:55:25;525.28;;;51.08;;
72209;SDS011;60113;48.762;12.302;2022-10-31T15:58:09;474.42;;;51.17;;
72209;SDS011;60113;48.762;12.302;2022-10-31T16:00:39;562.28;;;57.45;;
72209;SDS011;60113;48.762;12.302;2022-10-31T16:05:44;521.47;;;59.92;;
72209;SDS011;60113;48.762;12.302;2022-10-31T16:10:58;471.15;;;57.80;;
72209;SDS011;60113;48.762;12.302;2022-10-31T16:13:31;513.03;;;66.05;;
72209;SDS011;60113;48.762;12.302;2022-10-31T16:16:03;579.25;;;119.60;;
72209;SDS011;60113;48.762;12.302;2022-10-31T16:18:36;363.95;;;84.43;;
72209;SDS011;60113;48.762;12.302;2022-10-31T16:21:03;647.65;;;138.50;;
72209;SDS011;60113;48.762;12.302;2022-10-31T16:23:29;689.00;;;177.50;;
72209;SDS011;60113;48.762;12.302;2022-10-31T16:25:55;396.63;;;94.63;;
72209;SDS011;60113;48.762;12.302;2022-10-31T16:28:22;499.60;;;107.13;;
72209;SDS011;60113;48.762;12.302;2022-10-31T16:30:58;512.67;;;101.20;;
72209;SDS011;60113;48.762;12.302;2022-10-31T16:33:28;548.17;;;106.00;;
72209;SDS011;60113;48.762;12.302;2022-10-31T16:38:55;490.55;;;88.45;;
72209;SDS011;60113;48.762;12.302;2022-10-31T16:41:21;403.48;;;67.93;;
72209;SDS011;60113;48.762;12.302;2022-10-31T16:43:47;306.70;;;58.10;;
72209;SDS011;60113;48.762;12.302;2022-10-31T16:46:14;335.77;;;66.03;;